Time;durP1;ratioP1;P1;durP2;ratioP2;P2;SDS_P1;SDS_P2;PMS_P1;PMS_P2;Temp;Humidity;BMP_temperature;BMP_pressure;BME280_temperature;BME280_humidity;BME280_pressure;Samples;Min_cycle;Max_cycle;Signal;HPM_P1;HPM_P2
2024/02/08 00:01:26;;;;;;;19.92;8.10;;;13.50;91.00;;;;;;5075982;28;20043;-81
2024/02/08 00:03:51;;;;;;;24.92;7.90;;;13.50;90.90;;;;;;5076165;28;20036;-81
2024/02/08 00:06:17;;;;;;;21.77;7.82;;;13.50;90.90;;;;;;5058395;28;20032;-81
2024/02/08 00:08:43;;;;;;;26.90;7.55;;;13.60;91.00;;;;;;5076143;28;20500;-82
2024/02/08 00:11:08;;;;;;;20.15;7.32;;;13.60;90.90;;;;;;5076528;28;20032;-82
2024/02/08 00:13:34;;;;;;;23.98;6.53;;;13.60;90.90;;;;;;5076219;28;20029;-82
2024/02/08 00:16:00;;;;;;;25.20;7.85;;;13.60;90.90;;;;;;5076047;28;20035;-81
2024/02/08 00:18:26;;;;;;;15.93;6.50;;;13.60;91.00;;;;;;5061685;28;20083;-83
2024/02/08 00:20:52;;;;;;;24.40;7.88;;;13.60;90.90;;;;;;5079263;28;20072;-83
2024/02/08 00:23:18;;;;;;;27.33;7.97;;;13.60;90.90;;;;;;5077737;28;20039;-80
2024/02/08 00:25:46;;;;;;;22.73;6.65;;;13.60;90.90;;;;;;5076719;28;20040;-81
2024/02/08 00:28:13;;;;;;;20.55;6.80;;;13.60;90.90;;;;;;5059702;28;20020;-81
2024/02/08 00:30:40;;;;;;;17.85;6.78;;;13.60;91.00;;;;;;5076608;28;20032;-80
2024/02/08 00:33:07;;;;;;;19.25;7.10;;;13.60;91.00;;;;;;5075423;28;20036;-81
2024/02/08 00:35:33;;;;;;;15.63;6.40;;;13.70;91.00;;;;;;5075592;28;20043;-81
2024/02/08 00:38:00;;;;;;;26.70;7.15;;;13.70;91.00;;;;;;5075129;28;20048;-82
2024/02/08 00:40:25;;;;;;;17.65;6.38;;;13.70;91.10;;;;;;5057610;28;20056;-82
2024/02/08 00:42:51;;;;;;;19.13;7.00;;;13.70;91.00;;;;;;5076114;28;20032;-80
2024/02/08 00:45:21;;;;;;;21.85;6.75;;;13.70;91.00;;;;;;5082143;28;20029;-82
2024/02/08 00:47:54;;;;;;;23.15;7.43;;;13.70;90.90;;;;;;5092753;28;20035;-81
2024/02/08 00:50:21;;;;;;;20.27;6.68;;;13.70;91.00;;;;;;5078992;28;20481;-81
2024/02/08 00:52:47;;;;;;;18.58;6.40;;;13.70;91.00;;;;;;5076600;28;20044;-81
2024/02/08 00:55:16;;;;;;;22.40;6.75;;;13.80;91.00;;;;;;5057186;28;20060;-81
2024/02/08 00:57:43;;;;;;;25.98;6.55;;;13.80;91.00;;;;;;5074513;28;20031;-80
2024/02/08 01:00:09;;;;;;;16.23;6.13;;;13.80;90.90;;;;;;5074906;28;20051;-81
2024/02/08 01:02:35;;;;;;;21.30;6.47;;;13.80;91.00;;;;;;5074684;28;20478;-80
2024/02/08 01:05:01;;;;;;;23.35;7.25;;;13.80;90.90;;;;;;5074586;28;20047;-81
2024/02/08 01:07:31;;;;;;;20.17;6.38;;;13.80;91.00;;;;;;5056398;28;20164;-81
2024/02/08 01:09:58;;;;;;;18.23;6.20;;;13.80;91.00;;;;;;5074217;28;20162;-81
2024/02/08 01:12:23;;;;;;;13.68;6.15;;;13.80;91.00;;;;;;5074416;28;20032;-81
2024/02/08 01:14:50;;;;;;;21.13;6.80;;;13.80;90.90;;;;;;5056583;28;20028;-79
2024/02/08 01:17:16;;;;;;;18.85;6.15;;;13.80;91.00;;;;;;5074317;28;20028;-81
2024/02/08 01:19:42;;;;;;;20.58;7.00;;;13.80;90.90;;;;;;5073925;28;20497;-81
2024/02/08 01:22:08;;;;;;;27.83;7.90;;;13.90;91.00;;;;;;5074175;28;20519;-81
2024/02/08 01:24:34;;;;;;;22.55;5.95;;;13.80;90.90;;;;;;5073966;28;20032;-79
2024/02/08 01:27:01;;;;;;;20.52;6.47;;;13.90;90.90;;;;;;5055925;28;20078;-81
2024/02/08 01:29:27;;;;;;;21.52;6.65;;;13.90;90.90;;;;;;5073978;28;20037;-80
2024/02/08 01:31:56;;;;;;;17.83;5.63;;;13.90;90.80;;;;;;5074184;28;20423;-81
2024/02/08 01:34:25;;;;;;;22.20;6.78;;;13.90;90.90;;;;;;5055929;28;20415;-80
2024/02/08 01:36:53;;;;;;;22.65;6.13;;;13.90;90.80;;;;;;5055797;28;20128;-80
2024/02/08 01:39:25;;;;;;;19.75;6.28;;;13.90;90.90;;;;;;5056214;28;20465;-80
2024/02/08 01:41:53;;;;;;;18.90;6.10;;;13.90;90.70;;;;;;5075808;28;20128;-81
2024/02/08 01:44:21;;;;;;;24.60;6.35;;;13.90;90.80;;;;;;5074480;28;20039;-80
2024/02/08 01:46:48;;;;;;;22.10;6.80;;;13.90;90.80;;;;;;5074228;28;20025;-80
2024/02/08 01:49:23;;;;;;;23.63;6.65;;;13.90;90.70;;;;;;5075256;28;20052;-80
2024/02/08 01:51:52;;;;;;;18.15;6.78;;;13.90;90.80;;;;;;5074225;28;20404;-81
2024/02/08 01:54:19;;;;;;;19.70;6.25;;;13.90;90.70;;;;;;5074059;28;20078;-81
2024/02/08 01:56:47;;;;;;;22.35;5.90;;;13.90;90.80;;;;;;5073805;28;20029;-81
2024/02/08 01:59:14;;;;;;;17.73;5.88;;;13.90;90.80;;;;;;5072828;28;20346;-80
2024/02/08 02:01:46;;;;;;;19.95;6.25;;;13.90;90.90;;;;;;5072847;28;20037;-79
2024/02/08 02:04:13;;;;;;;19.10;5.40;;;13.90;90.90;;;;;;5073287;28;20036;-81
2024/02/08 02:06:43;;;;;;;23.83;5.50;;;13.90;90.80;;;;;;5073316;28;20033;-80
2024/02/08 02:09:23;;;;;;;20.02;5.95;;;13.90;90.70;;;;;;5073885;28;20032;-80
2024/02/08 02:12:02;;;;;;;20.35;5.45;;;14.00;90.70;;;;;;5073245;28;20096;-80
2024/02/08 02:14:29;;;;;;;21.58;5.40;;;14.00;90.70;;;;;;5072860;28;20039;-80
2024/02/08 02:17:12;;;;;;;23.15;6.93;;;14.00;90.80;;;;;;5073141;28;20033;-81
2024/02/08 02:19:41;;;;;;;16.15;5.43;;;14.00;90.80;;;;;;5072401;28;20080;-80
2024/02/08 02:22:08;;;;;;;23.55;6.13;;;13.90;90.80;;;;;;5072594;28;20112;-82
2024/02/08 02:24:40;;;;;;;20.15;5.75;;;13.90;90.80;;;;;;5072472;28;20399;-80
2024/02/08 02:27:07;;;;;;;18.58;5.50;;;13.90;90.80;;;;;;5054205;28;20029;-80
2024/02/08 02:29:38;;;;;;;17.05;4.95;;;13.90;90.80;;;;;;5054450;28;20121;-81
2024/02/08 02:32:11;;;;;;;23.27;5.68;;;13.90;90.80;;;;;;5072592;28;20112;-81
2024/02/08 02:34:41;;;;;;;18.30;5.68;;;13.90;90.80;;;;;;5054282;28;20037;-80
2024/02/08 02:37:07;;;;;;;27.30;5.90;;;13.90;90.80;;;;;;5071813;28;20454;-80
2024/02/08 02:39:33;;;;;;;22.38;5.72;;;13.90;90.80;;;;;;5072038;28;20079;-80
2024/02/08 02:41:59;;;;;;;19.60;6.45;;;13.90;90.80;;;;;;5071923;28;20032;-80
2024/02/08 02:44:27;;;;;;;21.60;6.00;;;13.90;90.70;;;;;;5072047;28;20029;-81
2024/02/08 02:46:54;;;;;;;16.00;5.38;;;13.90;90.80;;;;;;5072303;28;20104;-80
2024/02/08 02:49:21;;;;;;;21.75;6.35;;;13.90;90.70;;;;;;5072056;28;20549;-80
2024/02/08 02:51:50;;;;;;;23.10;5.97;;;13.90;90.70;;;;;;5071578;28;20029;-80
2024/02/08 02:54:22;;;;;;;18.50;5.38;;;14.00;90.70;;;;;;5072023;28;20032;-81
2024/02/08 02:56:48;;;;;;;17.83;5.22;;;14.00;90.80;;;;;;5072197;28;20028;-81
2024/02/08 02:59:20;;;;;;;20.73;5.38;;;14.00;90.60;;;;;;4997383;28;2137170;-81
2024/02/08 03:01:49;;;;;;;19.63;5.45;;;14.00;90.50;;;;;;5072393;28;20567;-80
2024/02/08 03:04:16;;;;;;;14.90;5.03;;;14.00;90.50;;;;;;5072531;28;20032;-77
2024/02/08 03:06:45;;;;;;;21.52;5.50;;;14.00;90.50;;;;;;5073073;28;20086;-81
2024/02/08 03:09:23;;;;;;;20.15;6.05;;;14.00;90.60;;;;;;5072320;28;20085;-81
2024/02/08 03:11:49;;;;;;;16.85;4.80;;;14.00;90.60;;;;;;5056133;28;20450;-79
2024/02/08 03:14:18;;;;;;;21.92;5.70;;;14.00;90.50;;;;;;5054325;28;20068;-80
2024/02/08 03:16:45;;;;;;;16.95;4.78;;;14.00;90.80;;;;;;5072474;28;20477;-80
2024/02/08 03:19:11;;;;;;;22.88;6.05;;;14.00;90.50;;;;;;5054563;28;20056;-80
2024/02/08 03:21:39;;;;;;;19.40;5.43;;;14.00;90.50;;;;;;5075243;28;20559;-80
2024/02/08 03:24:09;;;;;;;19.27;5.95;;;14.00;90.60;;;;;;5073939;28;20033;-80
2024/02/08 03:26:46;;;;;;;17.98;5.43;;;14.00;90.60;;;;;;5072633;28;20032;-81
2024/02/08 03:29:13;;;;;;;17.85;5.53;;;14.00;90.60;;;;;;5072576;28;20029;-81
2024/02/08 03:31:46;;;;;;;21.40;6.15;;;14.00;90.70;;;;;;5073004;28;20100;-81
2024/02/08 03:34:19;;;;;;;26.48;6.30;;;14.00;90.70;;;;;;5072973;28;20071;-80
2024/02/08 03:36:49;;;;;;;26.80;5.20;;;14.00;90.70;;;;;;5066717;28;20046;-81
2024/02/08 03:39:24;;;;;;;18.27;5.45;;;14.00;90.70;;;;;;5093566;28;20811;-81
2024/02/08 03:42:04;;;;;;;22.77;6.07;;;14.00;90.80;;;;;;5074787;28;20040;-80
2024/02/08 03:44:30;;;;;;;19.60;5.10;;;14.00;90.90;;;;;;5073346;28;20033;-80
2024/02/08 03:47:04;;;;;;;22.38;5.55;;;14.00;90.90;;;;;;5056982;28;20039;-81
2024/02/08 03:49:31;;;;;;;21.20;5.25;;;14.00;91.00;;;;;;5072810;28;20394;-81
2024/02/08 03:51:57;;;;;;;14.48;5.20;;;14.00;91.00;;;;;;5072889;28;20055;-80
2024/02/08 03:54:24;;;;;;;21.08;6.13;;;13.90;91.30;;;;;;5073152;28;20486;-80
2024/02/08 03:56:51;;;;;;;16.25;5.63;;;13.90;91.10;;;;;;5072072;28;20040;-80
2024/02/08 03:59:26;;;;;;;16.95;5.03;;;13.90;91.10;;;;;;5071535;28;20048;-81
2024/02/08 04:02:05;;;;;;;28.88;5.82;;;13.90;91.20;;;;;;5072148;28;20032;-81
2024/02/08 04:04:59;;;;;;;17.33;5.55;;;13.90;91.20;;;;;;5072251;28;20515;-81
2024/02/08 04:07:56;;;;;;;20.80;5.72;;;13.90;91.30;;;;;;5071691;28;20451;-80
2024/02/08 04:53:30;;;;;;;20.35;5.13;;;13.90;91.20;;;;;;5071484;28;20327;-78
2024/02/08 04:54:10;;;;;;;18.38;6.07;;;13.70;91.60;;;;;;5075632;28;20043;-81
2024/02/08 04:56:36;;;;;;;18.55;5.60;;;13.60;91.50;;;;;;5076888;28;20486;-81
2024/02/08 22:59:28;;;;;;;29.83;16.98;;;13.70;88.30;;;;;;5067252;22;20587;-80
2024/02/08 23:01:57;;;;;;;37.10;18.30;;;13.70;88.60;;;;;;5052834;28;20118;-80
2024/02/08 23:04:29;;;;;;;30.95;18.58;;;13.70;88.60;;;;;;5033008;28;20040;-79
2024/02/08 23:06:55;;;;;;;27.88;17.45;;;13.70;88.80;;;;;;5040230;28;20429;-80
2024/02/08 23:09:27;;;;;;;33.05;17.95;;;13.80;88.90;;;;;;5049914;28;20036;-81
2024/02/08 23:11:57;;;;;;;34.72;17.85;;;13.70;89.40;;;;;;5033092;28;20037;-80
2024/02/08 23:14:23;;;;;;;32.15;18.90;;;13.70;88.70;;;;;;5015146;28;20099;-80
2024/02/08 23:16:54;;;;;;;35.03;18.98;;;13.70;88.90;;;;;;5032334;28;20037;-79
2024/02/08 23:19:20;;;;;;;29.95;18.38;;;13.70;88.90;;;;;;5032321;28;20112;-80
2024/02/08 23:21:51;;;;;;;32.22;18.85;;;13.70;89.00;;;;;;5041790;28;20558;-80
2024/02/08 23:24:24;;;;;;;32.55;19.80;;;13.70;89.00;;;;;;5057979;28;20025;-80
2024/02/08 23:26:50;;;;;;;27.52;18.27;;;13.70;89.10;;;;;;5056146;28;20120;-79
2024/02/08 23:29:16;;;;;;;30.13;17.98;;;13.60;89.00;;;;;;5036808;28;20053;-79
2024/02/08 23:31:43;;;;;;;27.08;16.20;;;13.70;89.10;;;;;;5051443;28;20036;-81
2024/02/08 23:34:10;;;;;;;24.30;16.00;;;13.60;88.90;;;;;;5052949;28;20406;-80
2024/02/08 23:36:38;;;;;;;29.35;16.73;;;13.70;88.90;;;;;;5041043;28;20034;-81
2024/02/08 23:39:06;;;;;;;25.25;14.52;;;13.70;88.60;;;;;;5033269;28;20034;-79
2024/02/08 23:41:36;;;;;;;23.08;14.80;;;13.70;88.20;;;;;;5037804;28;20042;-81
2024/02/08 23:44:02;;;;;;;23.92;13.48;;;13.80;88.10;;;;;;5032758;28;20483;-81
2024/02/08 23:46:28;;;;;;;22.52;11.60;;;13.80;87.60;;;;;;5031409;28;20038;-79
2024/02/08 23:48:57;;;;;;;23.92;10.45;;;13.80;86.70;;;;;;5014891;28;20045;-79
2024/02/08 23:51:23;;;;;;;20.17;8.73;;;13.70;86.10;;;;;;5021108;28;20540;-78
2024/02/08 23:53:56;;;;;;;14.38;8.35;;;13.80;85.80;;;;;;5051873;28;20033;-79
2024/02/08 23:56:23;;;;;;;13.50;6.80;;;13.80;85.00;;;;;;5052195;28;20037;-81
2024/02/08 23:58:49;;;;;;;14.07;7.32;;;13.80;84.40;;;;;;5052571;28;20045;-79
